Ghadamis, Libya
Current Conditions -  °F | °C
As of 11:00 AM on Saturday 25 Oct 2014 (Local Time) from DAUZ Reporting Station
Clear Clear  
Wind Chill: 19°   Ceiling: Unl
Heat Index: 19°   Visibility: 6mi
Dew Point:   Wind: 12mph
Humidity: 32%   Direction: 60°ENE
Pressure: 30.12"   Gusts: NA
Location:  30.13°N, 9.5°E
Report Text: DAUZ 250800Z 06010KT CAVOK 19/02 Q1020
Loading
Personal Weather Stations






























Interactive Weather Map
Tropical Storm Tracking
New forecast layout! Learn more

10-Day Weather Forecast

Advertisements
Track Severe Weather on mobile